Terminal Aerodrome Forecast
Issued by NWS Chicago, IL

Home | Current Version | Previous Version | Text Only | Print | Product List | Glossary On
Versions: 1 2 3 4 5 6 7 8 9 10 11 12 13 14 15 16 17 18 19 20 21 22 23 24 25 26
000
FTUS43 KLOT 232035 AAB
TAFRFD
TAF AMD
KRFD 232035Z 2321/2418 29015KT P6SM VCTS SCT040 BKN070CB
      TEMPO 2321/2322 5SM -TSRA BKN040CB
     FM232200 35006KT P6SM SCT060
     FM241100 02008KT P6SM BKN020=

USA.gov is the U.S. government's official web portal to all federal, state and local government web resources and services.